createdAt,value
2019-05-16T00:03:53.930Z,1.00
2019-05-16T00:06:23.550Z,1.20
2019-05-16T00:08:53.280Z,1.10
2019-05-16T00:11:22.788Z,1.00
2019-05-16T00:13:52.165Z,0.97
2019-05-16T00:21:58.133Z,1.20
2019-05-16T00:25:08.659Z,0.80
2019-05-16T00:27:39.446Z,0.90
2019-05-16T00:33:12.003Z,0.80
2019-05-16T00:35:41.992Z,0.90
2019-05-16T00:38:11.526Z,0.70
2019-05-16T00:43:37.895Z,0.67
2019-05-16T00:46:08.351Z,1.10
2019-05-16T00:48:39.607Z,0.93
2019-05-16T00:51:48.645Z,1.00
2019-05-16T00:54:18.610Z,0.70
2019-05-16T00:57:29.893Z,0.80
2019-05-16T01:00:12.119Z,0.60
2019-05-16T01:03:20.851Z,0.90
2019-05-16T01:08:39.005Z,0.70
2019-05-16T01:11:08.416Z,0.93
2019-05-16T01:13:38.160Z,0.67
2019-05-16T01:16:08.960Z,0.63
2019-05-16T01:24:33.533Z,0.70
2019-05-16T01:27:02.960Z,0.80
2019-05-16T01:32:31.858Z,0.90
2019-05-16T01:34:59.742Z,1.00
2019-05-16T01:37:29.139Z,0.80
2019-05-16T01:39:58.864Z,0.87
2019-05-16T01:42:28.220Z,0.83
2019-05-16T01:44:57.951Z,0.67
2019-05-16T01:47:29.319Z,0.60
2019-05-16T01:49:59.062Z,0.70
2019-05-16T01:52:29.072Z,0.70
2019-05-16T01:57:55.712Z,0.83
2019-05-16T02:00:27.943Z,0.80
2019-05-16T02:02:57.934Z,1.23
2019-05-16T02:05:28.021Z,1.10
2019-05-16T02:07:59.410Z,0.80
2019-05-16T02:13:34.920Z,0.80
2019-05-16T02:18:43.363Z,0.80
2019-05-16T02:21:12.807Z,0.60
2019-05-16T02:24:02.168Z,1.00
2019-05-16T02:26:32.400Z,0.70
2019-05-16T02:29:01.953Z,1.07
2019-05-16T02:31:31.540Z,1.00
2019-05-16T02:34:04.937Z,1.00
2019-05-16T02:37:24.462Z,0.70
2019-05-16T02:39:45.176Z,0.80
2019-05-16T02:42:14.724Z,0.80
2019-05-16T02:44:44.188Z,1.13
2019-05-16T02:50:02.987Z,0.80
2019-05-16T02:58:51.661Z,0.83
2019-05-16T03:01:21.603Z,1.10
2019-05-16T03:07:03.055Z,1.10
2019-05-16T03:25:01.124Z,1.20
2019-05-16T03:30:23.630Z,1.27
2019-05-16T03:32:54.824Z,1.03
2019-05-16T03:35:24.471Z,1.20
2019-05-16T03:40:55.146Z,0.90
2019-05-16T03:44:03.801Z,1.00
2019-05-16T03:47:12.996Z,1.20
2019-05-16T03:52:23.513Z,1.50
2019-05-16T03:54:52.885Z,1.40
2019-05-16T03:57:22.511Z,1.50
2019-05-16T04:03:06.626Z,1.83
2019-05-16T04:05:35.983Z,1.53
2019-05-16T04:08:44.709Z,2.03
2019-05-16T04:11:18.089Z,1.40
2019-05-16T04:13:45.461Z,1.17
2019-05-16T04:25:07.269Z,1.23
2019-05-16T04:28:15.953Z,2.20
2019-05-16T04:30:45.602Z,1.23
2019-05-16T04:33:15.002Z,2.07
2019-05-16T04:36:23.870Z,1.60
2019-05-16T04:38:53.287Z,1.00
2019-05-16T04:41:22.743Z,1.10
2019-05-16T04:43:52.250Z,1.33
2019-05-16T04:46:21.816Z,1.23
2019-05-16T04:48:51.411Z,0.90
2019-05-16T04:51:22.013Z,1.13
2019-05-16T04:53:52.518Z,1.10
2019-05-16T04:57:01.753Z,0.83
2019-05-16T04:59:52.413Z,1.23
2019-05-16T05:11:21.657Z,0.60
2019-05-16T05:13:52.258Z,0.90
2019-05-16T05:16:21.638Z,1.33
2019-05-16T05:18:51.648Z,0.93
2019-05-16T05:21:23.007Z,0.90
2019-05-16T05:23:52.412Z,0.80
2019-05-16T05:26:41.604Z,0.70
2019-05-16T05:32:14.686Z,0.90
2019-05-16T05:34:46.182Z,0.70
2019-05-16T05:37:15.885Z,0.80
2019-05-16T05:39:45.598Z,0.60
2019-05-16T05:42:15.122Z,0.80
2019-05-16T05:45:24.185Z,1.03
2019-05-16T05:51:00.206Z,1.60
2019-05-16T05:53:30.305Z,1.50
2019-05-16T05:56:01.550Z,1.13
2019-05-16T05:58:31.211Z,0.93
2019-05-16T06:04:02.473Z,0.70
2019-05-16T06:06:31.977Z,0.50
2019-05-16T06:09:52.472Z,0.60
2019-05-16T06:12:12.271Z,0.70
2019-05-16T06:14:41.980Z,0.57
2019-05-16T06:17:13.388Z,0.70
2019-05-16T06:19:43.246Z,0.63
2019-05-16T06:22:12.746Z,1.00
2019-05-16T06:27:37.468Z,2.07
2019-05-16T06:30:46.328Z,0.70
2019-05-16T06:33:16.039Z,0.90
2019-05-16T06:36:24.789Z,0.90
2019-05-16T06:38:54.194Z,1.33
2019-05-16T06:41:24.054Z,0.70
2019-05-16T06:43:53.554Z,0.73
2019-05-16T06:46:23.065Z,1.50
2019-05-16T06:49:31.823Z,0.40
2019-05-16T06:52:03.863Z,0.53
2019-05-16T06:54:33.258Z,2.70
2019-05-16T06:57:02.972Z,0.70
2019-05-16T07:02:41.408Z,0.57
2019-05-16T07:05:50.730Z,0.70
2019-05-16T07:08:22.093Z,0.60
2019-05-16T07:13:26.944Z,0.40
2019-05-16T07:19:10.755Z,0.60
2019-05-16T07:21:40.316Z,0.60
2019-05-16T07:24:10.902Z,0.83
2019-05-16T07:27:21.899Z,1.00
2019-05-16T07:29:52.603Z,0.60
2019-05-16T07:32:22.200Z,1.17
2019-05-16T07:34:51.997Z,0.70
2019-05-16T07:37:21.603Z,0.73
2019-05-16T07:39:51.361Z,2.00
2019-05-16T07:42:22.760Z,0.80
2019-05-16T07:45:11.507Z,0.60
2019-05-16T07:47:43.284Z,0.40
2019-05-16T07:50:51.987Z,0.67
2019-05-16T07:53:21.843Z,0.53
2019-05-16T07:59:00.914Z,1.40
2019-05-16T08:01:31.115Z,1.20
2019-05-16T08:04:00.747Z,0.90
2019-05-16T08:09:26.323Z,1.00
2019-05-16T08:15:05.205Z,1.20
2019-05-16T08:21:01.635Z,1.00
2019-05-16T08:23:31.364Z,1.50
2019-05-16T08:26:01.436Z,0.80
2019-05-16T08:31:21.744Z,0.80
2019-05-16T08:33:55.275Z,1.10
2019-05-16T08:36:24.979Z,0.90
2019-05-16T08:41:51.890Z,0.90
2019-05-16T08:44:21.885Z,1.10
2019-05-16T08:52:23.590Z,0.80
2019-05-16T08:54:53.204Z,1.30
2019-05-16T09:01:01.935Z,0.83
2019-05-16T09:03:32.074Z,0.93
2019-05-16T09:06:02.807Z,0.73
2019-05-16T09:08:33.042Z,0.60
2019-05-16T09:10:41.537Z,0.70
2019-05-16T09:11:26.942Z,1.20
2019-05-16T09:16:39.050Z,0.63
2019-05-16T09:19:11.005Z,0.70
2019-05-16T09:21:40.393Z,0.97
2019-05-16T09:27:19.372Z,0.80
2019-05-16T09:29:49.142Z,0.70
2019-05-16T09:32:21.600Z,0.87
2019-05-16T09:34:50.206Z,0.70
2019-05-16T09:37:19.844Z,0.80
2019-05-16T09:39:49.262Z,1.20
2019-05-16T09:42:57.966Z,1.40
2019-05-16T09:45:28.292Z,0.70
2019-05-16T09:47:57.903Z,0.80
2019-05-16T09:51:06.850Z,0.77
2019-05-16T09:53:37.936Z,0.70
2019-05-16T09:56:07.509Z,1.13
2019-05-16T09:58:37.449Z,1.07
2019-05-16T10:04:23.531Z,0.80
2019-05-16T10:06:52.887Z,0.60
2019-05-16T10:09:38.561Z,0.83
2019-05-16T10:12:08.276Z,1.10
2019-05-16T10:15:07.509Z,0.80
2019-05-16T10:17:37.338Z,1.07
2019-05-16T10:23:36.372Z,1.20
2019-05-16T10:26:05.658Z,0.60
2019-05-16T10:28:38.448Z,0.57
2019-05-16T10:31:07.890Z,0.60
2019-05-16T10:33:58.121Z,0.90
2019-05-16T10:36:28.991Z,0.93
2019-05-16T10:42:22.050Z,0.90
2019-05-16T10:44:41.224Z,0.90
2019-05-16T10:47:10.649Z,0.80
2019-05-16T10:53:58.133Z,0.80
2019-05-16T10:56:00.165Z,1.00
2019-05-16T10:58:36.933Z,0.80
2019-05-16T11:01:27.354Z,0.90
2019-05-16T11:03:51.475Z,1.00
2019-05-16T11:09:09.649Z,0.70
2019-05-16T11:11:39.070Z,1.00
2019-05-16T11:14:09.288Z,0.80
2019-05-16T11:16:40.816Z,0.77
2019-05-16T11:19:18.147Z,0.80
2019-05-16T11:21:46.702Z,0.90
2019-05-16T11:24:16.059Z,0.70
2019-05-16T11:26:47.371Z,0.90
2019-05-16T11:29:17.180Z,1.10
2019-05-16T11:31:48.250Z,0.87
2019-05-16T11:34:17.752Z,1.00
2019-05-16T11:39:42.930Z,1.00
2019-05-16T11:42:12.311Z,0.77
2019-05-16T11:44:41.884Z,0.90
2019-05-16T11:47:11.286Z,0.80
2019-05-16T11:50:00.146Z,1.00
2019-05-16T11:52:30.491Z,0.70
2019-05-16T11:55:00.039Z,1.20
2019-05-16T11:57:29.587Z,0.70
2019-05-16T11:59:59.399Z,1.00
2019-05-16T12:02:29.122Z,1.90
2019-05-16T12:04:58.697Z,0.80
2019-05-16T12:07:33.689Z,0.90
2019-05-16T12:09:59.831Z,1.00
2019-05-16T12:12:29.227Z,0.93
2019-05-16T12:14:58.597Z,0.70
2019-05-16T12:17:28.162Z,0.60
2019-05-16T12:19:57.724Z,0.80
2019-05-16T12:22:27.170Z,0.70
2019-05-16T12:24:57.389Z,1.10
2019-05-16T12:27:32.712Z,0.90
2019-05-16T12:29:59.364Z,0.97
2019-05-16T12:32:28.966Z,0.80
2019-05-16T12:34:58.406Z,0.80
2019-05-16T12:40:03.953Z,1.33
2019-05-16T12:42:36.335Z,1.13
2019-05-16T12:48:20.701Z,1.40
2019-05-16T12:50:50.036Z,1.73
2019-05-16T12:53:23.534Z,1.53
2019-05-16T12:55:50.942Z,1.63
2019-05-16T12:58:26.052Z,1.23
2019-05-16T13:00:57.848Z,1.00
2019-05-16T13:03:24.300Z,1.77
2019-05-16T13:05:53.854Z,1.10
2019-05-16T13:08:26.615Z,1.43
2019-05-16T13:10:57.790Z,0.90
2019-05-16T13:13:38.287Z,1.10
2019-05-16T13:16:07.961Z,1.57
2019-05-16T13:21:27.619Z,2.93
2019-05-16T13:23:57.851Z,3.10
2019-05-16T13:26:27.430Z,4.27
2019-05-16T13:28:57.828Z,4.37
2019-05-16T13:31:28.974Z,4.93
2019-05-16T13:33:59.949Z,2.93
2019-05-16T13:36:32.193Z,1.90
2019-05-16T13:39:01.693Z,1.33
2019-05-16T13:41:34.504Z,1.23
2019-05-16T13:44:17.603Z,1.10
2019-05-16T13:46:37.180Z,1.00
2019-05-16T13:49:07.734Z,1.23
2019-05-16T13:51:37.451Z,1.30
2019-05-16T13:54:20.471Z,1.23
2019-05-16T13:56:50.407Z,1.13
2019-05-16T13:59:20.173Z,1.20
2019-05-16T14:01:49.562Z,1.03
2019-05-16T14:04:19.023Z,1.20
2019-05-16T14:06:48.515Z,0.90
2019-05-16T14:09:17.918Z,1.03
2019-05-16T14:11:47.500Z,1.30
2019-05-16T14:14:33.162Z,1.00
2019-05-16T14:16:48.612Z,1.40
2019-05-16T14:19:18.608Z,1.50
2019-05-16T14:21:48.098Z,1.30
2019-05-16T14:24:18.148Z,1.40
2019-05-16T14:26:49.182Z,1.00
2019-05-16T14:29:19.141Z,2.00
2019-05-16T14:31:48.703Z,1.50
2019-05-16T14:34:18.508Z,0.90
2019-05-16T14:36:49.829Z,1.60
2019-05-16T14:39:19.977Z,1.50
2019-05-16T14:41:50.818Z,0.90
2019-05-16T14:44:20.280Z,1.47
2019-05-16T14:46:49.684Z,1.37
2019-05-16T14:49:19.615Z,2.13
2019-05-16T14:51:49.258Z,2.70
2019-05-16T14:54:18.752Z,1.70
2019-05-16T14:56:49.028Z,1.90
2019-05-16T14:59:18.441Z,2.27
2019-05-16T15:01:47.887Z,1.63
2019-05-16T15:04:17.575Z,2.47
2019-05-16T15:06:47.226Z,2.80
2019-05-16T15:09:18.532Z,3.60
2019-05-16T15:11:49.698Z,3.50
2019-05-16T15:14:19.165Z,3.17
2019-05-16T15:16:51.748Z,3.63
2019-05-16T15:19:20.344Z,3.07
2019-05-16T15:21:49.756Z,2.30
2019-05-16T15:24:19.254Z,3.83
2019-05-16T15:26:48.765Z,3.73
2019-05-16T15:29:18.218Z,2.70
2019-05-16T15:31:47.634Z,2.77
2019-05-16T15:34:17.080Z,2.33
2019-05-16T15:36:46.950Z,1.70
2019-05-16T15:42:27.718Z,1.40
2019-05-16T15:44:58.664Z,1.33
2019-05-16T15:47:29.094Z,1.87
2019-05-16T15:49:59.847Z,1.50
2019-05-16T15:55:47.078Z,1.50
2019-05-16T15:58:37.384Z,1.60
2019-05-16T16:01:07.646Z,1.70
2019-05-16T16:03:38.149Z,1.90
2019-05-16T16:06:08.262Z,1.83
2019-05-16T16:08:37.702Z,1.93
2019-05-16T16:11:07.742Z,1.47
2019-05-16T16:13:37.747Z,2.00
2019-05-16T16:16:10.087Z,1.57
2019-05-16T16:18:38.979Z,1.60
2019-05-16T16:21:08.359Z,1.47
2019-05-16T16:23:37.798Z,1.30
2019-05-16T16:26:07.516Z,0.70
2019-05-16T16:28:50.969Z,0.43
2019-05-16T16:31:21.374Z,0.40
2019-05-16T16:33:50.857Z,0.60
2019-05-16T16:36:20.315Z,0.30
2019-05-16T16:38:49.809Z,0.50
2019-05-16T16:41:19.400Z,0.43
2019-05-16T16:43:49.011Z,0.30
2019-05-16T16:46:18.881Z,0.30
2019-05-16T16:48:48.221Z,0.40
2019-05-16T16:51:17.899Z,0.20
2019-05-16T16:53:49.925Z,0.30
2019-05-16T16:56:19.427Z,0.33
2019-05-16T16:58:49.624Z,0.20
2019-05-16T17:04:50.934Z,0.40
2019-05-16T17:07:38.449Z,0.20
2019-05-16T17:13:11.711Z,0.70
2019-05-16T17:15:42.240Z,0.90
2019-05-16T17:20:59.761Z,0.20
2019-05-16T17:23:29.367Z,0.23
2019-05-16T17:25:58.881Z,0.40
2019-05-16T17:28:28.366Z,0.50
2019-05-16T17:30:58.299Z,0.20
2019-05-16T17:36:29.596Z,0.30
2019-05-16T17:38:59.363Z,0.20
2019-05-16T17:41:29.587Z,0.50
2019-05-16T17:43:58.955Z,0.60
2019-05-16T17:46:37.321Z,0.40
2019-05-16T17:49:00.435Z,0.30
2019-05-16T17:51:29.891Z,0.30
2019-05-16T17:53:59.265Z,0.10
2019-05-16T17:57:08.749Z,0.30
2019-05-16T17:59:38.308Z,0.20
2019-05-16T18:02:07.789Z,0.30
2019-05-16T18:04:40.853Z,0.30
2019-05-16T18:07:10.898Z,0.10
2019-05-16T18:12:51.718Z,0.40
2019-05-16T18:15:41.333Z,0.53
2019-05-16T18:18:11.318Z,0.60
2019-05-16T18:20:54.487Z,0.73
2019-05-16T18:23:23.304Z,0.60
2019-05-16T18:28:42.838Z,0.67
2019-05-16T18:31:12.303Z,0.80
2019-05-16T18:33:41.764Z,0.40
2019-05-16T18:36:11.270Z,0.50
2019-05-16T18:39:20.109Z,0.83
2019-05-16T18:41:50.010Z,0.20
2019-05-16T18:44:20.058Z,0.20
2019-05-16T18:49:47.355Z,0.50
2019-05-16T18:52:17.862Z,0.40
2019-05-16T18:55:27.016Z,0.43
2019-05-16T18:57:57.554Z,1.00
2019-05-16T19:00:27.908Z,1.50
2019-05-16T19:02:59.366Z,1.03
2019-05-16T19:05:49.230Z,1.00
2019-05-16T19:08:19.862Z,0.77
2019-05-16T19:10:50.848Z,1.27
2019-05-16T19:13:20.369Z,0.70
2019-05-16T19:16:29.774Z,0.73
2019-05-16T19:18:59.070Z,1.00
2019-05-16T19:21:28.609Z,1.20
2019-05-16T19:24:01.845Z,0.80
2019-05-16T19:26:31.713Z,0.93
2019-05-16T19:29:02.831Z,1.17
2019-05-16T19:34:49.246Z,1.40
2019-05-16T19:37:40.657Z,1.50
2019-05-16T19:40:48.798Z,1.10
2019-05-16T19:43:18.325Z,0.90
2019-05-16T19:45:47.860Z,1.80
2019-05-16T19:48:17.863Z,1.87
2019-05-16T19:51:26.962Z,1.60
2019-05-16T19:53:58.997Z,1.40
2019-05-16T19:59:44.377Z,1.73
2019-05-16T20:05:23.596Z,1.23
2019-05-16T20:08:32.572Z,0.90
2019-05-16T20:11:02.147Z,0.80
2019-05-16T20:16:41.482Z,1.03
2019-05-16T20:19:10.891Z,1.73
2019-05-16T20:25:02.338Z,1.33
2019-05-16T20:27:31.851Z,1.17
2019-05-16T20:30:42.483Z,1.10
2019-05-16T20:36:28.985Z,1.00
2019-05-16T20:38:58.471Z,0.80
2019-05-16T20:41:28.336Z,1.00
2019-05-16T20:43:58.318Z,0.93
2019-05-16T20:46:49.732Z,1.20
2019-05-16T20:49:19.477Z,1.20
2019-05-16T20:51:50.015Z,1.97
2019-05-16T20:54:20.594Z,1.17
2019-05-16T21:00:18.238Z,0.90
2019-05-16T21:02:49.515Z,0.97
2019-05-16T21:05:58.626Z,1.00
2019-05-16T21:11:39.422Z,0.83
2019-05-16T21:14:09.089Z,0.70
2019-05-16T21:16:38.815Z,1.30
2019-05-16T21:19:08.257Z,1.10
2019-05-16T21:21:37.774Z,1.60
2019-05-16T21:27:19.063Z,1.60
2019-05-16T21:29:48.656Z,2.47
2019-05-16T21:32:18.101Z,2.00
2019-05-16T21:34:48.150Z,1.80
2019-05-16T21:37:57.352Z,1.67
2019-05-16T21:40:26.922Z,2.03
2019-05-16T21:42:58.720Z,1.43
2019-05-16T21:45:28.687Z,1.30
2019-05-16T21:48:00.580Z,1.73
2019-05-16T21:50:49.332Z,1.27
2019-05-16T21:53:31.980Z,1.53
2019-05-16T21:56:01.364Z,1.90
2019-05-16T21:58:30.895Z,1.53
2019-05-16T22:01:39.610Z,1.80
2019-05-16T22:04:09.011Z,1.50
2019-05-16T22:06:38.376Z,1.50
2019-05-16T22:09:47.682Z,1.37
2019-05-16T22:12:17.442Z,1.40
2019-05-16T22:14:52.895Z,1.53
2019-05-16T22:17:22.370Z,1.40
2019-05-16T22:20:00.325Z,1.43
2019-05-16T22:23:09.197Z,1.97
2019-05-16T22:26:18.435Z,1.17
2019-05-16T22:28:49.603Z,1.43
2019-05-16T22:31:19.351Z,1.20
2019-05-16T22:34:28.545Z,1.00
2019-05-16T22:36:57.936Z,1.10
2019-05-16T22:39:28.195Z,0.90
2019-05-16T22:41:57.775Z,1.20
2019-05-16T22:47:48.336Z,0.97
2019-05-16T22:53:44.930Z,0.80
2019-05-16T22:56:14.460Z,1.00
2019-05-16T23:01:39.520Z,0.80
2019-05-16T23:07:18.168Z,0.90
2019-05-16T23:09:47.537Z,0.70
2019-05-16T23:12:17.497Z,0.90
2019-05-16T23:14:48.890Z,1.00
2019-05-16T23:17:18.301Z,0.70
2019-05-16T23:20:27.745Z,0.80
2019-05-16T23:22:58.366Z,0.60
2019-05-16T23:25:28.133Z,0.70
2019-05-16T23:27:57.712Z,0.50
2019-05-16T23:30:27.340Z,0.57
2019-05-16T23:32:58.310Z,0.70
2019-05-16T23:38:20.050Z,0.80
2019-05-16T23:41:07.281Z,0.70
2019-05-16T23:43:37.565Z,0.60
2019-05-16T23:46:08.523Z,0.63
2019-05-16T23:48:38.075Z,0.53
2019-05-16T23:51:07.983Z,0.40
2019-05-16T23:53:40.175Z,0.40
2019-05-16T23:56:09.578Z,0.40
2019-05-16T23:59:18.655Z,0.30
